Time;durP1;ratioP1;P1;durP2;ratioP2;P2;SDS_P1;SDS_P2;PMS_P1;PMS_P2;Temp;Humidity;BMP_temperature;BMP_pressure;BME280_temperature;BME280_humidity;BME280_pressure;Samples;Min_cycle;Max_cycle;Signal;HPM_P1;HPM_P2
2021/01/20 00:00:55;;;;;;;7.20;4.20;;;;;;;;;;5059433;28;20032;-83
2021/01/20 00:03:21;;;;;;;11.35;4.18;;;;;;;;;;5059050;28;20478;-84
2021/01/20 00:05:47;;;;;;;5.28;3.30;;;;;;;;;;5058905;28;20033;-86
2021/01/20 00:08:13;;;;;;;7.15;3.53;;;;;;;;;;5058940;28;20040;-84
2021/01/20 00:10:39;;;;;;;5.47;3.53;;;;;;;;;;5058704;28;20067;-84
2021/01/20 00:13:05;;;;;;;8.48;3.55;;;;;;;;;;5058775;28;20127;-85
2021/01/20 00:15:31;;;;;;;4.47;3.17;;;;;;;;;;5075934;28;20025;-86
2021/01/20 00:17:57;;;;;;;9.38;4.15;;;;;;;;;;5076385;28;20089;-86
2021/01/20 00:20:24;;;;;;;6.85;3.40;;;;;;;;;;5076096;28;20021;-86
2021/01/20 00:22:50;;;;;;;9.65;3.28;;;;;;;;;;5058026;28;20039;-85
2021/01/20 00:25:19;;;;;;;7.80;2.83;;;;;;;;;;5058455;28;20062;-85
2021/01/20 00:27:45;;;;;;;6.93;3.67;;;;;;;;;;5058657;28;20058;-85
2021/01/20 00:30:12;;;;;;;7.85;3.55;;;;;;;;;;5058619;28;20067;-85
2021/01/20 00:32:38;;;;;;;6.38;2.97;;;;;;;;;;5058625;28;20035;-87
2021/01/20 00:35:08;;;;;;;7.63;2.95;;;;;;;;;;5075983;28;20017;-87
2021/01/20 00:37:34;;;;;;;6.90;3.50;;;;;;;;;;5060804;28;20028;-86
2021/01/20 00:40:00;;;;;;;8.23;3.95;;;;;;;;;;5060842;28;20035;-85
2021/01/20 00:42:26;;;;;;;7.57;3.78;;;;;;;;;;5060772;28;20032;-85
2021/01/20 00:44:52;;;;;;;8.15;3.38;;;;;;;;;;5060697;28;20028;-86
2021/01/20 00:47:18;;;;;;;8.13;2.90;;;;;;;;;;5078660;28;20098;-84
2021/01/20 00:49:44;;;;;;;6.40;2.92;;;;;;;;;;5078992;28;20408;-85
2021/01/20 00:52:11;;;;;;;10.95;4.68;;;;;;;;;;5068482;28;20024;-85
2021/01/20 00:54:37;;;;;;;9.77;3.53;;;;;;;;;;5078923;28;20028;-86
2021/01/20 00:57:03;;;;;;;9.98;3.63;;;;;;;;;;5061418;28;20059;-86
2021/01/20 00:59:29;;;;;;;7.25;4.88;;;;;;;;;;5061695;28;20059;-84
2021/01/20 01:01:57;;;;;;;6.35;3.78;;;;;;;;;;5079326;28;20021;-86
2021/01/20 01:04:24;;;;;;;5.68;2.88;;;;;;;;;;5061873;28;20028;-84
2021/01/20 01:06:51;;;;;;;8.48;3.25;;;;;;;;;;5061610;28;20432;-86
2021/01/20 01:09:17;;;;;;;6.82;3.45;;;;;;;;;;5062136;28;20139;-86
2021/01/20 01:11:43;;;;;;;5.78;3.17;;;;;;;;;;5061679;28;20025;-87
2021/01/20 01:14:10;;;;;;;6.30;2.90;;;;;;;;;;5061044;28;20350;-87
2021/01/20 01:16:36;;;;;;;9.68;2.80;;;;;;;;;;5061087;28;20047;-84
2021/01/20 01:19:03;;;;;;;6.85;3.20;;;;;;;;;;5078965;28;20032;-85
2021/01/20 01:21:29;;;;;;;5.45;2.80;;;;;;;;;;5062073;28;20040;-86
2021/01/20 01:23:55;;;;;;;10.30;3.53;;;;;;;;;;5078889;28;20055;-86
2021/01/20 01:26:21;;;;;;;6.80;3.30;;;;;;;;;;5078482;28;20029;-85
2021/01/20 01:28:47;;;;;;;6.35;3.00;;;;;;;;;;5078520;28;20036;-85
2021/01/20 01:31:13;;;;;;;7.15;3.50;;;;;;;;;;5079145;28;20031;-85
2021/01/20 01:33:40;;;;;;;5.93;3.08;;;;;;;;;;5061398;28;20029;-84
2021/01/20 01:36:06;;;;;;;5.45;3.22;;;;;;;;;;5061855;28;20051;-86
2021/01/20 01:38:32;;;;;;;7.45;3.80;;;;;;;;;;5061032;28;20154;-85
2021/01/20 01:40:58;;;;;;;7.25;3.85;;;;;;;;;;5061289;28;20028;-87
2021/01/20 01:43:24;;;;;;;6.13;3.08;;;;;;;;;;5079299;28;20032;-84
2021/01/20 01:45:51;;;;;;;7.10;3.70;;;;;;;;;;5077961;28;20115;-85
2021/01/20 01:48:17;;;;;;;5.97;3.42;;;;;;;;;;5061268;28;20032;-87
2021/01/20 01:50:43;;;;;;;6.82;3.33;;;;;;;;;;5061247;28;20423;-87
2021/01/20 01:53:09;;;;;;;7.40;3.63;;;;;;;;;;5062018;28;20028;-85
2021/01/20 01:55:35;;;;;;;8.25;3.28;;;;;;;;;;5063599;28;20024;-85
2021/01/20 01:58:02;;;;;;;5.53;4.07;;;;;;;;;;5081052;28;20024;-86
2021/01/20 02:00:28;;;;;;;7.65;3.92;;;;;;;;;;5065277;28;20137;-87
2021/01/20 02:02:54;;;;;;;6.40;3.40;;;;;;;;;;5065294;28;20036;-84
2021/01/20 02:05:20;;;;;;;5.93;2.83;;;;;;;;;;5082864;28;20039;-87
2021/01/20 02:07:46;;;;;;;5.38;3.15;;;;;;;;;;5080561;28;20186;-86
2021/01/20 02:10:13;;;;;;;4.30;2.88;;;;;;;;;;5061976;28;20088;-85
2021/01/20 02:12:45;;;;;;;6.15;3.00;;;;;;;;;;5079878;28;20055;-84
2021/01/20 02:15:15;;;;;;;6.78;3.22;;;;;;;;;;5060568;28;20074;-84
2021/01/20 02:17:47;;;;;;;7.00;3.10;;;;;;;;;;5078862;28;20032;-85
2021/01/20 02:20:19;;;;;;;6.65;3.08;;;;;;;;;;5061791;28;20058;-85
2021/01/20 02:22:49;;;;;;;5.88;2.78;;;;;;;;;;5082437;28;20024;-86
2021/01/20 02:25:34;;;;;;;5.13;3.80;;;;;;;;;;5070553;28;20036;-84
2021/01/20 02:28:14;;;;;;;6.65;2.67;;;;;;;;;;5080798;28;20035;-86
2021/01/20 02:30:44;;;;;;;7.13;3.35;;;;;;;;;;5098186;28;20024;-85
2021/01/20 02:33:22;;;;;;;9.55;3.40;;;;;;;;;;5098181;28;20060;-83
2021/01/20 02:35:52;;;;;;;6.47;3.17;;;;;;;;;;5074241;28;20029;-87
2021/01/20 02:38:19;;;;;;;4.55;3.22;;;;;;;;;;5080844;28;20089;-83
2021/01/20 02:40:45;;;;;;;5.88;3.38;;;;;;;;;;5080704;28;20021;-85
2021/01/20 02:43:11;;;;;;;6.80;3.03;;;;;;;;;;5079569;28;20043;-85
2021/01/20 02:45:37;;;;;;;5.72;2.97;;;;;;;;;;5097531;28;20017;-85
2021/01/20 02:48:03;;;;;;;6.97;3.22;;;;;;;;;;5079574;28;20044;-86
2021/01/20 02:50:29;;;;;;;6.13;3.53;;;;;;;;;;5096138;28;20028;-85
2021/01/20 02:53:02;;;;;;;9.07;3.65;;;;;;;;;;5078436;28;20099;-85
2021/01/20 02:55:29;;;;;;;6.43;2.95;;;;;;;;;;5076291;28;20035;-86
2021/01/20 02:57:57;;;;;;;5.65;2.70;;;;;;;;;;5074802;28;20028;-85
2021/01/20 03:00:56;;;;;;;5.03;2.83;;;;;;;;;;5086601;28;20031;-86
2021/01/20 03:03:24;;;;;;;4.85;2.65;;;;;;;;;;5063927;28;20055;-87
2021/01/20 03:05:51;;;;;;;5.10;2.53;;;;;;;;;;5063868;28;20043;-86
2021/01/20 03:08:17;;;;;;;6.28;3.30;;;;;;;;;;5062970;28;20029;-85
2021/01/20 03:10:43;;;;;;;7.22;3.65;;;;;;;;;;5080649;28;20021;-87
2021/01/20 03:13:10;;;;;;;4.13;2.88;;;;;;;;;;5079165;28;20032;-84
2021/01/20 03:15:38;;;;;;;7.20;3.08;;;;;;;;;;5080484;28;20029;-86
2021/01/20 03:18:05;;;;;;;5.93;3.72;;;;;;;;;;5078205;28;20171;-86
2021/01/20 03:20:31;;;;;;;9.18;3.20;;;;;;;;;;5076043;28;20017;-86
2021/01/20 03:22:58;;;;;;;5.25;3.65;;;;;;;;;;5058315;28;20352;-85
2021/01/20 03:25:24;;;;;;;5.32;3.05;;;;;;;;;;5059106;28;20043;-88
2021/01/20 03:27:50;;;;;;;5.25;2.78;;;;;;;;;;5058462;28;20028;-85
2021/01/20 03:30:17;;;;;;;5.13;2.72;;;;;;;;;;5076614;28;20051;-86
2021/01/20 03:32:44;;;;;;;5.13;3.47;;;;;;;;;;5058874;28;20352;-85
2021/01/20 03:35:10;;;;;;;5.90;3.30;;;;;;;;;;5057716;28;20028;-86
2021/01/20 03:37:36;;;;;;;5.25;2.53;;;;;;;;;;5057323;28;20026;-87
2021/01/20 03:40:03;;;;;;;7.88;2.95;;;;;;;;;;5074882;28;20028;-86
2021/01/20 03:42:29;;;;;;;4.72;2.75;;;;;;;;;;5075952;28;20032;-86
2021/01/20 03:44:56;;;;;;;5.80;2.65;;;;;;;;;;5058133;28;20060;-86
2021/01/20 03:47:22;;;;;;;6.47;3.00;;;;;;;;;;5075790;28;20033;-84
2021/01/20 03:49:48;;;;;;;6.72;2.92;;;;;;;;;;5058282;28;20329;-85
2021/01/20 03:52:14;;;;;;;5.95;3.17;;;;;;;;;;5075941;28;20078;-87
2021/01/20 03:54:40;;;;;;;3.50;2.63;;;;;;;;;;5058300;28;20060;-84
2021/01/20 03:57:06;;;;;;;6.75;3.30;;;;;;;;;;5075921;28;20028;-87
2021/01/20 03:59:32;;;;;;;7.00;2.72;;;;;;;;;;5058054;28;20029;-85
2021/01/20 04:01:59;;;;;;;5.25;2.65;;;;;;;;;;5058230;28;20024;-84
2021/01/20 04:04:25;;;;;;;3.55;2.13;;;;;;;;;;5075992;28;20115;-83
2021/01/20 04:06:51;;;;;;;2.75;2.28;;;;;;;;;;5075999;28;20037;-83
2021/01/20 04:09:17;;;;;;;6.10;2.90;;;;;;;;;;5060499;28;20024;-87
2021/01/20 04:11:43;;;;;;;5.00;3.03;;;;;;;;;;5062209;28;20028;-84
2021/01/20 04:14:10;;;;;;;3.38;2.50;;;;;;;;;;5079432;28;20037;-85
2021/01/20 04:16:36;;;;;;;5.18;3.17;;;;;;;;;;5061290;28;20024;-84
2021/01/20 04:19:03;;;;;;;7.20;3.15;;;;;;;;;;5061166;28;20025;-86
2021/01/20 04:21:29;;;;;;;7.78;2.95;;;;;;;;;;5079287;28;20070;-85
2021/01/20 04:23:55;;;;;;;7.28;3.08;;;;;;;;;;5061295;28;20040;-86
2021/01/20 04:26:21;;;;;;;5.05;3.40;;;;;;;;;;5077614;28;20086;-85
2021/01/20 04:28:48;;;;;;;7.65;3.08;;;;;;;;;;5079039;28;20047;-84
2021/01/20 04:31:14;;;;;;;4.68;3.17;;;;;;;;;;5079754;28;20109;-86
2021/01/20 04:33:40;;;;;;;6.60;3.47;;;;;;;;;;5061831;28;20032;-86
2021/01/20 04:36:07;;;;;;;6.03;3.08;;;;;;;;;;5060744;28;20025;-85
2021/01/20 04:38:33;;;;;;;6.03;2.80;;;;;;;;;;5062637;28;20032;-85
2021/01/20 04:40:59;;;;;;;5.63;2.70;;;;;;;;;;5081043;28;20035;-85
2021/01/20 04:43:25;;;;;;;7.28;3.30;;;;;;;;;;5081689;28;20028;-88
2021/01/20 04:45:52;;;;;;;3.70;2.22;;;;;;;;;;5080891;28;20066;-86
2021/01/20 04:48:19;;;;;;;5.80;2.85;;;;;;;;;;5098998;28;20036;-85
2021/01/20 04:50:45;;;;;;;5.18;2.85;;;;;;;;;;5082128;28;20416;-85
2021/01/20 04:53:13;;;;;;;3.78;2.22;;;;;;;;;;5099090;28;20046;-86
2021/01/20 04:55:41;;;;;;;5.05;2.55;;;;;;;;;;5082124;28;20335;-83
2021/01/20 04:58:10;;;;;;;3.73;2.40;;;;;;;;;;5080302;28;20039;-86
2021/01/20 05:00:37;;;;;;;4.65;2.38;;;;;;;;;;5064335;28;20028;-87
2021/01/20 05:03:05;;;;;;;4.05;2.50;;;;;;;;;;5039185;28;20349;-85
2021/01/20 05:05:31;;;;;;;4.90;2.50;;;;;;;;;;5079274;28;20433;-85
2021/01/20 05:07:58;;;;;;;4.50;2.60;;;;;;;;;;5064657;28;20284;-86
2021/01/20 05:10:24;;;;;;;4.53;2.50;;;;;;;;;;5081060;28;20077;-87
2021/01/20 05:12:50;;;;;;;5.10;2.90;;;;;;;;;;5097787;28;20036;-87
2021/01/20 05:15:16;;;;;;;3.97;2.67;;;;;;;;;;5097185;28;20031;-86
2021/01/20 05:17:55;;;;;;;4.75;2.58;;;;;;;;;;5080375;28;20032;-85
2021/01/20 05:20:21;;;;;;;;;;;;;;;;;;5098311;28;20051;-87
2021/01/20 05:23:01;;;;;;;4.65;2.78;;;;;;;;;;5077094;28;20320;-87
2021/01/20 05:25:30;;;;;;;3.85;2.65;;;;;;;;;;5076340;28;20390;-86
2021/01/20 05:27:56;;;;;;;3.88;2.38;;;;;;;;;;5075725;28;20040;-85
2021/01/20 05:30:22;;;;;;;3.92;2.88;;;;;;;;;;5075992;28;20029;-87
2021/01/20 05:32:56;;;;;;;4.97;2.80;;;;;;;;;;5077252;28;20034;-87
2021/01/20 05:35:22;;;;;;;3.83;2.47;;;;;;;;;;5096909;28;20055;-88
2021/01/20 05:37:49;;;;;;;4.20;2.63;;;;;;;;;;5079708;28;20331;-85
2021/01/20 05:40:16;;;;;;;5.05;3.13;;;;;;;;;;5079939;28;20032;-87
2021/01/20 05:42:52;;;;;;;4.18;2.03;;;;;;;;;;5098079;28;20043;-87
2021/01/20 05:45:19;;;;;;;2.97;2.65;;;;;;;;;;5080897;28;20028;-86
2021/01/20 05:48:02;;;;;;;5.70;3.15;;;;;;;;;;5098818;28;20047;-87
2021/01/20 05:50:28;;;;;;;3.92;2.40;;;;;;;;;;5098834;28;20070;-85
2021/01/20 05:53:08;;;;;;;3.97;2.40;;;;;;;;;;5080793;28;20024;-84
2021/01/20 05:55:34;;;;;;;;;;;;;;;;;;5085199;28;20028;-84
2021/01/20 05:58:01;;;;;;;3.00;2.45;;;;;;;;;;5116314;28;19926;-88
2021/01/20 06:00:27;;;;;;;7.18;2.83;;;;;;;;;;5100488;28;20046;-87
2021/01/20 06:02:57;;;;;;;3.85;2.30;;;;;;;;;;5085236;28;20019;-87
2021/01/20 06:05:23;;;;;;;;;;;;;;;;;;5086719;28;20066;-88
2021/01/20 06:07:53;;;;;;;4.63;2.50;;;;;;;;;;5088581;28;19916;-87
2021/01/20 06:10:20;;;;;;;4.88;2.20;;;;;;;;;;5103542;28;20028;-86
2021/01/20 06:12:46;;;;;;;2.80;2.20;;;;;;;;;;5099465;28;20103;-86
2021/01/20 06:15:13;;;;;;;4.65;2.50;;;;;;;;;;5096854;28;20023;-87
2021/01/20 06:17:43;;;;;;;4.00;2.22;;;;;;;;;;5083097;28;20363;-86
2021/01/20 06:20:10;;;;;;;3.35;2.47;;;;;;;;;;5079489;28;20038;-86
2021/01/20 06:22:56;;;;;;;4.88;2.28;;;;;;;;;;5090166;28;20032;-84
2021/01/20 06:25:28;;;;;;;2.63;2.20;;;;;;;;;;5097058;28;20067;-84
2021/01/20 06:27:56;;;;;;;3.45;2.15;;;;;;;;;;5101112;28;20036;-83
2021/01/20 06:30:28;;;;;;;3.75;2.30;;;;;;;;;;5100083;28;20024;-85
2021/01/20 06:32:56;;;;;;;4.20;2.53;;;;;;;;;;5102814;28;20028;-85
2021/01/20 06:35:22;;;;;;;3.08;2.03;;;;;;;;;;5080559;28;20121;-84
2021/01/20 06:37:49;;;;;;;3.65;2.55;;;;;;;;;;5079572;28;20034;-88
2021/01/20 06:40:22;;;;;;;3.20;2.38;;;;;;;;;;5080120;28;20195;-87
2021/01/20 06:42:48;;;;;;;3.78;1.85;;;;;;;;;;5085438;28;20053;-85
2021/01/20 06:45:16;;;;;;;4.53;2.58;;;;;;;;;;5099385;28;20028;-83
2021/01/20 06:47:58;;;;;;;2.58;2.30;;;;;;;;;;5083848;28;20123;-86
2021/01/20 06:50:24;;;;;;;3.72;2.42;;;;;;;;;;5077755;28;20028;-87
2021/01/20 06:53:02;;;;;;;3.53;2.15;;;;;;;;;;5082105;28;20028;-84
2021/01/20 06:55:32;;;;;;;5.47;2.53;;;;;;;;;;5096139;28;20024;-87
2021/01/20 06:58:18;;;;;;;3.35;2.13;;;;;;;;;;5077545;28;20429;-85
2021/01/20 07:00:44;;;;;;;4.05;2.38;;;;;;;;;;5081775;28;20028;-86
2021/01/20 07:03:10;;;;;;;3.90;2.13;;;;;;;;;;5102936;28;20034;-85
2021/01/20 07:05:37;;;;;;;3.35;2.42;;;;;;;;;;5088628;28;20024;-84
2021/01/20 07:08:04;;;;;;;4.30;2.30;;;;;;;;;;5061602;28;20038;-86
2021/01/20 07:10:51;;;;;;;3.53;2.33;;;;;;;;;;5085036;28;20058;-85
2021/01/20 07:13:20;;;;;;;5.53;2.25;;;;;;;;;;5068288;28;20032;-85
2021/01/20 07:15:47;;;;;;;3.17;2.15;;;;;;;;;;5085095;28;20024;-86
2021/01/20 07:18:14;;;;;;;2.50;1.73;;;;;;;;;;5114840;28;20027;-87
2021/01/20 07:20:41;;;;;;;3.45;1.92;;;;;;;;;;5075262;28;20028;-85
2021/01/20 07:23:08;;;;;;;2.20;1.98;;;;;;;;;;5077798;28;20024;-85
2021/01/20 07:25:34;;;;;;;3.97;2.05;;;;;;;;;;5073082;28;20032;-85
2021/01/20 07:28:00;;;;;;;3.90;2.70;;;;;;;;;;5068520;28;20355;-86
2021/01/20 07:30:27;;;;;;;3.10;2.08;;;;;;;;;;5066491;28;20025;-88
2021/01/20 07:32:53;;;;;;;2.45;2.22;;;;;;;;;;5083841;28;20043;-87
2021/01/20 07:35:26;;;;;;;3.70;2.25;;;;;;;;;;5074646;28;20068;-87
2021/01/20 07:37:59;;;;;;;4.45;1.77;;;;;;;;;;5075531;28;20047;-88
2021/01/20 07:40:29;;;;;;;3.58;1.95;;;;;;;;;;5084374;28;20375;-88
2021/01/20 07:42:55;;;;;;;3.65;1.95;;;;;;;;;;5078599;28;20148;-87
2021/01/20 07:45:37;;;;;;;2.28;1.90;;;;;;;;;;5081367;28;20031;-86
2021/01/20 07:48:04;;;;;;;5.03;2.05;;;;;;;;;;5084386;28;20036;-87
2021/01/20 07:50:44;;;;;;;5.43;2.03;;;;;;;;;;5089433;28;20045;-85
2021/01/20 07:53:11;;;;;;;2.88;2.15;;;;;;;;;;5084321;28;20072;-85
2021/01/20 07:55:37;;;;;;;2.13;1.90;;;;;;;;;;5086229;28;20042;-87
2021/01/20 07:58:06;;;;;;;2.92;1.95;;;;;;;;;;5079031;28;20084;-88
2021/01/20 08:00:43;;;;;;;2.40;1.88;;;;;;;;;;5075839;28;20081;-86
2021/01/20 08:03:09;;;;;;;2.47;1.80;;;;;;;;;;5085270;28;20043;-87
2021/01/20 08:05:36;;;;;;;2.88;1.85;;;;;;;;;;5083096;28;20065;-88
2021/01/20 08:08:06;;;;;;;3.25;1.90;;;;;;;;;;5080335;28;20111;-87
2021/01/20 08:10:32;;;;;;;3.03;2.03;;;;;;;;;;5099559;28;20024;-86
2021/01/20 08:13:00;;;;;;;6.72;2.25;;;;;;;;;;5082139;28;20027;-86
2021/01/20 08:15:27;;;;;;;2.45;1.48;;;;;;;;;;5075033;28;20028;-87
2021/01/20 08:17:56;;;;;;;2.33;1.90;;;;;;;;;;5101143;28;20039;-86
2021/01/20 08:20:22;;;;;;;3.00;1.90;;;;;;;;;;5085302;28;20131;-86
2021/01/20 08:22:49;;;;;;;5.85;2.30;;;;;;;;;;5076821;28;20066;-87
2021/01/20 08:25:21;;;;;;;2.88;1.88;;;;;;;;;;5100396;28;20050;-87
2021/01/20 08:27:48;;;;;;;3.22;2.00;;;;;;;;;;5080257;28;20419;-86
2021/01/20 08:30:28;;;;;;;2.63;1.90;;;;;;;;;;5094570;28;20046;-87
2021/01/20 08:32:55;;;;;;;3.03;2.13;;;;;;;;;;5049790;28;20041;-87
2021/01/20 08:35:31;;;;;;;3.65;2.10;;;;;;;;;;5088894;28;20271;-86
2021/01/20 08:37:58;;;;;;;5.38;2.40;;;;;;;;;;5098175;28;20439;-86
2021/01/20 08:40:24;;;;;;;4.60;1.83;;;;;;;;;;5094606;28;20082;-85
2021/01/20 08:42:51;;;;;;;2.80;2.00;;;;;;;;;;5102334;28;20020;-87
2021/01/20 08:45:29;;;;;;;2.60;1.60;;;;;;;;;;5092566;28;20088;-88
2021/01/20 08:48:08;;;;;;;3.63;2.17;;;;;;;;;;5095859;28;20073;-86
2021/01/20 08:50:41;;;;;;;2.40;2.00;;;;;;;;;;5079711;28;20020;-88
2021/01/20 08:53:09;;;;;;;2.10;1.80;;;;;;;;;;5084282;28;20047;-87
2021/01/20 08:55:39;;;;;;;3.47;1.95;;;;;;;;;;5096333;28;20114;-88
2021/01/20 08:58:20;;;;;;;3.75;1.83;;;;;;;;;;5084852;28;20047;-86
2021/01/20 09:00:48;;;;;;;2.53;1.63;;;;;;;;;;5046696;28;20024;-87
2021/01/20 09:03:19;;;;;;;2.25;1.90;;;;;;;;;;5082787;28;20028;-86
2021/01/20 09:05:49;;;;;;;2.72;1.77;;;;;;;;;;5083917;28;20038;-87
2021/01/20 09:08:15;;;;;;;4.28;2.00;;;;;;;;;;5087258;28;20068;-87
2021/01/20 09:10:46;;;;;;;1.80;1.50;;;;;;;;;;5083179;28;20028;-86
2021/01/20 09:13:12;;;;;;;2.70;1.98;;;;;;;;;;5083084;28;20024;-88
2021/01/20 09:15:38;;;;;;;2.05;1.73;;;;;;;;;;5078895;28;20035;-86
2021/01/20 09:18:06;;;;;;;2.78;1.88;;;;;;;;;;5092427;28;20035;-87
2021/01/20 09:20:34;;;;;;;2.55;1.75;;;;;;;;;;5085294;28;20400;-85
2021/01/20 09:23:00;;;;;;;4.25;1.98;;;;;;;;;;5088100;28;20023;-86
2021/01/20 09:25:27;;;;;;;2.60;1.80;;;;;;;;;;5078586;28;20366;-87
2021/01/20 09:27:56;;;;;;;2.65;2.08;;;;;;;;;;5089558;28;20039;-86
2021/01/20 09:30:22;;;;;;;3.05;2.20;;;;;;;;;;5094213;28;20020;-87
2021/01/20 09:32:49;;;;;;;5.35;1.92;;;;;;;;;;5082336;28;20032;-87
2021/01/20 09:35:16;;;;;;;5.70;1.77;;;;;;;;;;5097518;28;20016;-82
2021/01/20 09:37:43;;;;;;;2.95;1.40;;;;;;;;;;5089922;28;20020;-85
2021/01/20 09:40:10;;;;;;;4.72;2.17;;;;;;;;;;5081625;28;20024;-85
2021/01/20 09:42:37;;;;;;;2.92;2.13;;;;;;;;;;5084311;28;20089;-85
2021/01/20 09:45:04;;;;;;;3.58;1.98;;;;;;;;;;5078070;28;20043;-85
2021/01/20 09:47:30;;;;;;;2.65;1.80;;;;;;;;;;5089745;28;20047;-83
2021/01/20 09:49:56;;;;;;;5.95;1.50;;;;;;;;;;5077393;28;20074;-87
2021/01/20 09:52:25;;;;;;;2.20;1.33;;;;;;;;;;5070913;28;20025;-88
2021/01/20 09:54:55;;;;;;;3.83;1.55;;;;;;;;;;5056949;28;20022;-85
2021/01/20 09:57:21;;;;;;;;;;;;;;;;;;5111908;28;20027;-86
2021/01/20 09:59:47;;;;;;;2.53;1.80;;;;;;;;;;5086743;28;19912;-85
2021/01/20 10:02:13;;;;;;;3.95;1.50;;;;;;;;;;5083325;28;20027;-83
2021/01/20 10:04:45;;;;;;;4.72;1.80;;;;;;;;;;5073911;28;20062;-85
2021/01/20 10:07:11;;;;;;;3.20;2.28;;;;;;;;;;5083146;28;20103;-86
2021/01/20 10:09:38;;;;;;;4.82;1.40;;;;;;;;;;5099893;28;20173;-86
2021/01/20 10:12:05;;;;;;;5.00;1.88;;;;;;;;;;5102816;28;20036;-87
2021/01/20 10:14:31;;;;;;;3.33;2.00;;;;;;;;;;5092075;28;20126;-86
2021/01/20 10:16:57;;;;;;;3.13;1.85;;;;;;;;;;5090465;28;20042;-87
2021/01/20 10:19:26;;;;;;;3.53;1.73;;;;;;;;;;5088973;28;20016;-88
2021/01/20 10:21:52;;;;;;;3.67;1.73;;;;;;;;;;5091740;28;20026;-87
2021/01/20 10:24:18;;;;;;;3.05;1.63;;;;;;;;;;5084668;28;20047;-87
2021/01/20 10:26:45;;;;;;;2.80;1.77;;;;;;;;;;5089855;28;20038;-86
2021/01/20 10:29:11;;;;;;;1.60;1.42;;;;;;;;;;5083670;28;20031;-88
2021/01/20 10:31:39;;;;;;;2.85;1.83;;;;;;;;;;5089001;28;20020;-87
2021/01/20 10:34:06;;;;;;;5.18;1.92;;;;;;;;;;5093478;28;20024;-89
2021/01/20 10:36:33;;;;;;;8.20;1.80;;;;;;;;;;5054369;28;20025;-87
2021/01/20 10:38:59;;;;;;;2.47;1.70;;;;;;;;;;5072518;28;20131;-87
2021/01/20 10:41:26;;;;;;;3.63;1.90;;;;;;;;;;5093221;28;20023;-87
2021/01/20 10:43:52;;;;;;;3.45;1.88;;;;;;;;;;5088102;28;20055;-88
2021/01/20 10:46:25;;;;;;;3.33;2.50;;;;;;;;;;5082769;28;20035;-89
2021/01/20 10:48:52;;;;;;;2.10;1.58;;;;;;;;;;5064033;28;20061;-84
2021/01/20 10:51:18;;;;;;;2.38;1.80;;;;;;;;;;5071821;28;20036;-90
2021/01/20 10:53:44;;;;;;;4.22;1.85;;;;;;;;;;5083541;28;20070;-87
2021/01/20 10:56:10;;;;;;;4.68;1.65;;;;;;;;;;5096615;28;20110;-87
2021/01/20 10:58:37;;;;;;;3.10;1.92;;;;;;;;;;5092327;28;20034;-90
2021/01/20 11:01:06;;;;;;;2.67;1.52;;;;;;;;;;5084561;28;20035;-85
2021/01/20 11:03:32;;;;;;;2.45;1.60;;;;;;;;;;5040552;28;20030;-85
2021/01/20 11:05:59;;;;;;;4.63;1.88;;;;;;;;;;5069310;28;20030;-86
2021/01/20 11:08:25;;;;;;;2.70;1.70;;;;;;;;;;5014014;28;20052;-90
2021/01/20 11:10:51;;;;;;;4.68;1.73;;;;;;;;;;5069179;28;20051;-90
2021/01/20 11:13:18;;;;;;;3.63;1.67;;;;;;;;;;5073345;28;20030;-87
2021/01/20 11:15:45;;;;;;;3.65;2.15;;;;;;;;;;5082399;28;20042;-87
2021/01/20 11:18:15;;;;;;;2.70;1.70;;;;;;;;;;5088493;28;20024;-85
2021/01/20 11:20:43;;;;;;;3.33;1.90;;;;;;;;;;5078877;28;20028;-86
2021/01/20 11:23:13;;;;;;;4.32;2.25;;;;;;;;;;5081467;28;20031;-86
2021/01/20 11:25:39;;;;;;;;;;;;;;;;;;5088581;28;20020;-87
2021/01/20 11:28:05;;;;;;;6.57;1.90;;;;;;;;;;5104927;28;20337;-87
2021/01/20 11:30:31;;;;;;;2.67;1.75;;;;;;;;;;5096533;28;20024;-86
2021/01/20 11:32:57;;;;;;;2.30;1.58;;;;;;;;;;5081593;28;20020;-87
2021/01/20 11:35:24;;;;;;;2.10;1.77;;;;;;;;;;5101755;28;20384;-88
2021/01/20 11:37:50;;;;;;;5.22;2.08;;;;;;;;;;5100118;28;20034;-85
2021/01/20 11:40:16;;;;;;;4.40;1.83;;;;;;;;;;5081684;28;20023;-89
2021/01/20 11:42:43;;;;;;;4.40;1.95;;;;;;;;;;5109154;28;20095;-87
2021/01/20 11:45:12;;;;;;;3.60;2.33;;;;;;;;;;5089515;28;20062;-89
2021/01/20 11:47:39;;;;;;;2.10;1.70;;;;;;;;;;5082919;28;20047;-87
2021/01/20 11:50:06;;;;;;;4.28;2.08;;;;;;;;;;5085756;28;20119;-84
2021/01/20 11:52:34;;;;;;;2.65;1.85;;;;;;;;;;5085240;28;20049;-85
2021/01/20 11:55:04;;;;;;;2.47;1.73;;;;;;;;;;5091125;28;20101;-89
2021/01/20 11:57:31;;;;;;;4.32;2.17;;;;;;;;;;5079920;28;20032;-87
2021/01/20 11:59:57;;;;;;;4.28;2.03;;;;;;;;;;5081082;28;20024;-90
2021/01/20 12:02:24;;;;;;;2.28;1.70;;;;;;;;;;5087403;28;20032;-88
2021/01/20 12:04:50;;;;;;;3.60;1.83;;;;;;;;;;5086201;28;20111;-90
2021/01/20 12:07:16;;;;;;;2.60;1.73;;;;;;;;;;5096957;28;20043;-87
2021/01/20 12:09:43;;;;;;;4.22;1.90;;;;;;;;;;5095371;28;20032;-89
2021/01/20 12:12:16;;;;;;;2.83;2.05;;;;;;;;;;5085446;28;20065;-87
2021/01/20 12:14:45;;;;;;;2.15;1.80;;;;;;;;;;5079383;28;20118;-87
2021/01/20 12:17:12;;;;;;;3.58;1.88;;;;;;;;;;5088420;28;20032;-87
2021/01/20 12:19:38;;;;;;;3.28;1.80;;;;;;;;;;5083210;28;20082;-88
2021/01/20 12:22:05;;;;;;;2.63;1.95;;;;;;;;;;5078787;28;20028;-85
2021/01/20 12:24:33;;;;;;;2.53;1.73;;;;;;;;;;5091161;28;20073;-88
2021/01/20 12:26:59;;;;;;;2.95;1.77;;;;;;;;;;5085970;28;20036;-90
2021/01/20 12:29:25;;;;;;;4.57;2.13;;;;;;;;;;5102197;28;20028;-88
2021/01/20 12:31:51;;;;;;;2.85;1.75;;;;;;;;;;5087468;28;20044;-85
2021/01/20 12:34:17;;;;;;;1.88;1.60;;;;;;;;;;5112074;28;20067;-87
2021/01/20 12:36:47;;;;;;;4.90;2.20;;;;;;;;;;5079531;28;20136;-87
2021/01/20 12:39:17;;;;;;;2.75;1.73;;;;;;;;;;5073474;28;20043;-87
2021/01/20 12:41:43;;;;;;;2.97;2.08;;;;;;;;;;5083550;28;20049;-85
2021/01/20 12:44:09;;;;;;;1.88;1.77;;;;;;;;;;5087490;28;20031;-87
2021/01/20 12:46:35;;;;;;;2.72;1.92;;;;;;;;;;5064828;28;20156;-88
2021/01/20 12:49:02;;;;;;;3.40;2.10;;;;;;;;;;5067608;28;20187;-85
2021/01/20 12:51:28;;;;;;;3.22;1.95;;;;;;;;;;5090758;28;20040;-86
2021/01/20 12:53:57;;;;;;;4.20;1.92;;;;;;;;;;5093066;28;20032;-87
2021/01/20 12:56:30;;;;;;;2.42;1.92;;;;;;;;;;5090499;28;20027;-85
2021/01/20 12:58:58;;;;;;;3.55;2.00;;;;;;;;;;5046980;28;20020;-86
2021/01/20 13:01:24;;;;;;;3.10;2.13;;;;;;;;;;5036489;28;20452;-89
2021/01/20 13:03:50;;;;;;;2.47;1.75;;;;;;;;;;5102486;28;20084;-87
2021/01/20 13:06:20;;;;;;;1.98;1.77;;;;;;;;;;5104678;28;20125;-87
2021/01/20 13:08:47;;;;;;;2.08;1.65;;;;;;;;;;5066188;28;20098;-87
2021/01/20 13:11:16;;;;;;;4.25;1.83;;;;;;;;;;5084887;28;20089;-87
2021/01/20 13:13:46;;;;;;;3.38;2.00;;;;;;;;;;5101455;28;20046;-90
2021/01/20 13:16:12;;;;;;;2.97;2.00;;;;;;;;;;5126124;27;20016;-87
2021/01/20 13:18:38;;;;;;;2.65;1.95;;;;;;;;;;5109556;28;20028;-86
2021/01/20 13:21:11;;;;;;;2.83;1.90;;;;;;;;;;5110306;28;20012;-88
2021/01/20 13:23:38;;;;;;;2.35;1.80;;;;;;;;;;5104535;28;20035;-87
2021/01/20 13:26:04;;;;;;;2.67;1.70;;;;;;;;;;5101021;28;20031;-86
2021/01/20 13:28:31;;;;;;;3.38;1.95;;;;;;;;;;5096656;28;20032;-88
2021/01/20 13:30:57;;;;;;;2.38;1.85;;;;;;;;;;5102307;28;20118;-86
2021/01/20 13:33:24;;;;;;;5.57;2.53;;;;;;;;;;5097607;28;20032;-85
2021/01/20 13:35:51;;;;;;;2.60;1.83;;;;;;;;;;5097559;28;20024;-87
2021/01/20 13:38:19;;;;;;;3.13;2.00;;;;;;;;;;5119725;28;20090;-85
2021/01/20 13:40:46;;;;;;;9.70;2.22;;;;;;;;;;5095695;28;20126;-87
2021/01/20 13:43:15;;;;;;;2.50;2.28;;;;;;;;;;5064173;28;20026;-89
2021/01/20 13:45:42;;;;;;;2.78;1.95;;;;;;;;;;5087263;28;21213;-88
2021/01/20 13:48:08;;;;;;;3.05;2.08;;;;;;;;;;5078841;28;20038;-86
2021/01/20 13:50:34;;;;;;;3.75;1.90;;;;;;;;;;5101967;28;20028;-89
2021/01/20 13:53:00;;;;;;;2.60;1.70;;;;;;;;;;5091960;28;20035;-86
2021/01/20 13:55:27;;;;;;;5.25;1.77;;;;;;;;;;5068714;28;20023;-85
2021/01/20 13:57:53;;;;;;;2.17;1.75;;;;;;;;;;5091816;28;20024;-84
2021/01/20 14:00:19;;;;;;;2.58;1.92;;;;;;;;;;5092133;28;20127;-87
2021/01/20 14:02:45;;;;;;;4.60;1.80;;;;;;;;;;5086013;28;20061;-86
2021/01/20 14:05:12;;;;;;;3.55;2.00;;;;;;;;;;5085796;28;20031;-86
2021/01/20 14:07:38;;;;;;;3.33;1.98;;;;;;;;;;5064867;28;20055;-87
2021/01/20 14:10:11;;;;;;;2.15;1.52;;;;;;;;;;5060747;28;20026;-86
2021/01/20 14:12:37;;;;;;;3.50;1.95;;;;;;;;;;5031452;28;20263;-86
2021/01/20 14:15:04;;;;;;;2.95;1.85;;;;;;;;;;5062923;28;20073;-88
2021/01/20 14:17:33;;;;;;;2.92;1.92;;;;;;;;;;5067201;28;20068;-89
2021/01/20 14:20:03;;;;;;;3.28;2.65;;;;;;;;;;5013880;28;20051;-86
2021/01/20 14:22:30;;;;;;;4.25;2.03;;;;;;;;;;5109685;28;20031;-89
2021/01/20 14:24:57;;;;;;;4.35;1.92;;;;;;;;;;5085050;28;20115;-85
2021/01/20 14:27:23;;;;;;;2.55;2.05;;;;;;;;;;5069022;28;20087;-88
2021/01/20 14:29:49;;;;;;;2.38;1.80;;;;;;;;;;5074083;28;20119;-88
2021/01/20 14:32:16;;;;;;;3.58;2.08;;;;;;;;;;5066032;28;20025;-87
2021/01/20 14:34:42;;;;;;;2.47;1.63;;;;;;;;;;5093324;28;20025;-89
2021/01/20 14:37:08;;;;;;;3.17;1.63;;;;;;;;;;5098824;28;20076;-87
2021/01/20 14:39:35;;;;;;;4.20;2.08;;;;;;;;;;5085415;28;20054;-86
2021/01/20 14:42:01;;;;;;;2.78;1.95;;;;;;;;;;5089481;28;20027;-87
2021/01/20 14:44:27;;;;;;;3.50;2.00;;;;;;;;;;5093060;28;20097;-86
2021/01/20 14:46:56;;;;;;;4.15;2.42;;;;;;;;;;5026334;28;20077;-90
2021/01/20 14:49:22;;;;;;;3.85;1.70;;;;;;;;;;5078364;28;20127;-87